Patricia Ann — WDE2845 — position and weather

sailwx.info

Track history (hours):
 
Tides and Currents Weather Stations Pressure Air Temp Water Temp Dewpoint Dewpoint Depression Visibility Wind Speed Wind Dir Waves Ship Positions

Patricia Ann

Owner: AmNav Maritime Corporation, Oakland, CA. More information available from US FCC via Universal Licensing System and Coast Guard Vessel Documentation Center.

Last reported at 2017-Dec-15 02:10 UTC. Time now 2017-Dec-15 04:35 UTC.
Position N 38°03' W 122°11'.

Length 24 m; draft 4.9 m.

Type: Tug. MMSI: 367330510.

Date/timePositionNaut miles runAvg speedWind from/ knotsBaromVisibWave heightAir tempDewpointWater temp
2017-Dec-15 02:10N 38°03' W 122°11'13 8.3
2017-Dec-15 00:35N 37°57' W 122°26'1 9.7
2017-Dec-15 00:30N 37°56' W 122°26'8 1.4
2017-Dec-14 18:30N 37°49' W 122°19'0 0.0
2017-Dec-14 18:00N 37°49' W 122°19'0 0.0
2017-Dec-14 17:30N 37°49' W 122°19'0 0.0
2017-Dec-14 17:00N 37°49' W 122°19'0 0.0
2017-Dec-14 16:30N 37°49' W 122°19'0 0.0
2017-Dec-14 16:00N 37°49' W 122°19'0 0.0
2017-Dec-14 15:00N 37°49' W 122°19'1 1.4
2017-Dec-14 14:30N 37°49' W 122°19'0 0.5
2017-Dec-14 14:00N 37°49' W 122°20'1 1.2
2017-Dec-14 13:30N 37°49' W 122°19'0 0.7
2017-Dec-14 13:00N 37°49' W 122°19'0 0.0
2017-Dec-14 12:30N 37°49' W 122°19'0 0.0
2017-Dec-14 12:00N 37°49' W 122°19'0 0.0
2017-Dec-14 11:30N 37°49' W 122°19'0 0.0
2017-Dec-14 11:00N 37°49' W 122°19'0 0.0
2017-Dec-14 10:30N 37°49' W 122°19'0 0.0
2017-Dec-14 10:00N 37°49' W 122°19'0 0.0
2017-Dec-14 09:30N 37°49' W 122°19'0 0.0
2017-Dec-14 09:00N 37°49' W 122°19'0 0.0
2017-Dec-14 08:30N 37°49' W 122°19'0 0.0
2017-Dec-14 08:00N 37°49' W 122°19'0 0.0
2017-Dec-14 07:30N 37°49' W 122°19'0 0.0
2017-Dec-14 07:00N 37°49' W 122°19'0 0.0
2017-Dec-14 06:30N 37°49' W 122°19'0 0.0
2017-Dec-14 06:00N 37°49' W 122°19'0 0.0
2017-Dec-14 05:30N 37°49' W 122°19'0 0.0
2017-Dec-14 05:00N 37°49' W 122°19'0 0.0
2017-Dec-14 04:30N 37°49' W 122°19'0 0.0
2017-Dec-14 04:00N 37°49' W 122°19'0 0.0
2017-Dec-14 03:30N 37°49' W 122°19'2 3.2
2017-Dec-14 03:01N 37°48' W 122°19'0 0.0
2017-Dec-14 02:31N 37°48' W 122°19'0 0.1
2017-Dec-14 02:01N 37°48' W 122°19'0 0.1
2017-Dec-14 01:30N 37°48' W 122°19'0 0.2
2017-Dec-14 01:01N 37°48' W 122°19'1 1.9
2017-Dec-14 00:31N 37°48' W 122°21'2 3.6
2017-Dec-14 00:00N 37°49' W 122°19'0 0.0
2017-Dec-13 23:30N 37°49' W 122°19'0 0.0
2017-Dec-13 23:00N 37°49' W 122°19'0 0.0
2017-Dec-13 22:30N 37°49' W 122°19'0 0.0
2017-Dec-13 22:00N 37°49' W 122°19'0 0.0
2017-Dec-13 21:30N 37°49' W 122°19'0 0.0
2017-Dec-13 21:00N 37°49' W 122°19'1 1.1
2017-Dec-13 20:31N 37°49' W 122°19'4 7.2
2017-Dec-13 20:00N 37°51' W 122°23'510.2
2017-Dec-13 19:30N 37°56' W 122°25'9 9.0
2017-Dec-13 18:33N 38°03' W 122°19'0 8.6
2017-Dec-13 18:30N 38°03' W 122°19'3 3.0
2017-Dec-13 17:27N 38°04' W 122°15'5 1.9
2017-Dec-13 14:33N 38°02' W 122°08'2 9.1
2017-Dec-13 14:23N 38°02' W 122°10'4 9.4
2017-Dec-13 13:54N 38°04' W 122°16'510.1
2017-Dec-13 13:26N 38°02' W 122°21'610.5
2017-Dec-13 12:51N 37°57' W 122°26'411.6
2017-Dec-13 12:30N 37°53' W 122°25'5 9.7
2017-Dec-13 12:00N 37°49' W 122°21'2 4.0
2017-Dec-13 11:30N 37°49' W 122°19'0 0.0
2017-Dec-13 11:00N 37°49' W 122°19'0 0.0
2017-Dec-13 10:30N 37°49' W 122°19'0 0.0
2017-Dec-13 10:00N 37°49' W 122°19'0 0.0
2017-Dec-13 09:30N 37°49' W 122°19'0 0.0
2017-Dec-13 09:00N 37°49' W 122°19'0 0.0
2017-Dec-13 08:30N 37°49' W 122°19'0 0.0
2017-Dec-13 08:00N 37°49' W 122°19'2 3.2
2017-Dec-13 07:30N 37°48' W 122°19'0 0.4
2017-Dec-13 07:01N 37°48' W 122°19'0 0.2
2017-Dec-13 06:30N 37°48' W 122°19'1 2.3
2017-Dec-13 06:00N 37°48' W 122°17'1 2.2
2017-Dec-13 05:31N 37°48' W 122°19'2 4.9
2017-Dec-13 05:00N 37°48' W 122°22'1 1.9
2017-Dec-13 04:30N 37°48' W 122°21'2 3.4
2017-Dec-13 04:00N 37°48' W 122°19'0 0.0
2017-Dec-13 03:30N 37°48' W 122°19'1 2.4
2017-Dec-13 03:00N 37°48' W 122°20'1 2.0
2017-Dec-13 02:30N 37°48' W 122°21'2 4.8
2017-Dec-13 02:00N 37°49' W 122°19'0 0.0
2017-Dec-13 01:30N 37°49' W 122°19'0 0.0
2017-Dec-13 01:00N 37°49' W 122°19'2 3.5
2017-Dec-13 00:30N 37°48' W 122°21'1 2.0
2017-Dec-13 00:00N 37°49' W 122°19'1 1.7
2017-Dec-12 23:30N 37°49' W 122°19'0 0.0
2017-Dec-12 23:00N 37°49' W 122°19'3 6.6
2017-Dec-12 22:30N 37°51' W 122°23'5 9.5
2017-Dec-12 22:00N 37°55' W 122°25'0 0.6
2017-Dec-12 21:30N 37°55' W 122°25'1 1.6
2017-Dec-12 21:00N 37°55' W 122°25'2 3.9
2017-Dec-12 20:30N 37°53' W 122°25'2 4.5
2017-Dec-12 19:59N 37°55' W 122°25'0 0.0
2017-Dec-12 19:30N 37°55' W 122°25'0 0.0
2017-Dec-12 19:00N 37°55' W 122°25'0 0.0
2017-Dec-12 18:30N 37°55' W 122°25'0 0.0
2017-Dec-12 18:00N 37°55' W 122°25'0 0.0
2017-Dec-12 17:30N 37°55' W 122°25'0 0.2
2017-Dec-12 15:41N 37°55' W 122°25'1 3.1
2017-Dec-12 15:30N 37°55' W 122°25'3 5.8
2017-Dec-12 15:00N 37°54' W 122°22'1 1.6
2017-Dec-12 14:27N 37°55' W 122°22'0 0.5
2017-Dec-12 13:57N 37°55' W 122°22'0 0.0
2017-Dec-12 13:30N 37°55' W 122°22'0 0.0
2017-Dec-12 13:00N 37°55' W 122°22'2 3.4
2017-Dec-12 12:30N 37°54' W 122°24'4 7.6
2017-Dec-12 12:01N 37°51' W 122°23'3 6.1
2017-Dec-12 11:30N 37°49' W 122°20'0 0.2
2017-Dec-12 11:00N 37°49' W 122°20'1 1.0
2017-Dec-12 10:30N 37°49' W 122°19'1 1.1
2017-Dec-12 10:00N 37°49' W 122°19'0 0.0
2017-Dec-12 09:30N 37°49' W 122°19'0 0.0
2017-Dec-12 09:00N 37°49' W 122°19'0 0.0
2017-Dec-12 08:30N 37°49' W 122°19'0 0.0
2017-Dec-12 08:00N 37°49' W 122°19'0 0.0
2017-Dec-12 07:30N 37°49' W 122°19'0 0.0
2017-Dec-12 07:00N 37°49' W 122°19'0 0.0
2017-Dec-12 06:31N 37°49' W 122°19'0 0.0
2017-Dec-12 06:00N 37°49' W 122°19'0 0.0
2017-Dec-12 05:30N 37°49' W 122°19'0 0.0
2017-Dec-12 05:00N 37°49' W 122°19'0 0.0
2017-Dec-12 04:30N 37°49' W 122°19'0 0.0
2017-Dec-12 04:00N 37°49' W 122°19'2 4.4
2017-Dec-12 03:31N 37°49' W 122°21'4 7.2
2017-Dec-12 03:00N 37°52' W 122°24'3 5.1
2017-Dec-12 02:30N 37°54' W 122°22'1 1.1
2017-Dec-12 02:00N 37°54' W 122°22'0 0.3
2017-Dec-12 01:30N 37°55' W 122°22'2 4.4
2017-Dec-12 00:58N 37°55' W 122°25'4 7.7
2017-Dec-12 00:29N 37°59' W 122°26'6 9.8
2017-Dec-11 23:54N 38°02' W 122°20'510.8
2017-Dec-11 23:25N 38°04' W 122°14'6 0.6
2017-Dec-11 13:40N 38°03' W 122°06'0 0.0
2017-Dec-11 13:29N 38°03' W 122°06'0 0.0
2017-Dec-11 12:59N 38°03' W 122°06'2 2.1
2017-Dec-11 12:13N 38°02' W 122°08'15 0.9
2017-Dec-10 18:45N 38°01' W 121°48'2 6.8
2017-Dec-10 18:29N 38°02' W 121°51'3 5.9
2017-Dec-10 17:55N 38°03' W 121°55'9 1.7
2017-Dec-10 12:42N 38°03' W 122°06'2 2.7
2017-Dec-10 12:01N 38°02' W 122°08'0 2.3
2017-Dec-10 11:59N 38°02' W 122°08'1 2.2
2017-Dec-10 11:27N 38°02' W 122°10'2 2.3
2017-Dec-10 10:44N 38°02' W 122°08'4 0.4
2017-Dec-10 01:29N 38°03' W 122°12'810.7
2017-Dec-10 00:45N 38°02' W 122°22'310.9
2017-Dec-10 00:29N 38°00' W 122°24'510.1
2017-Dec-10 00:00N 37°55' W 122°25'2 3.8
2017-Dec-09 23:26N 37°55' W 122°22'0 0.4
2017-Dec-09 23:00N 37°55' W 122°22'1 1.0
2017-Dec-09 22:30N 37°55' W 122°22'3 5.5
2017-Dec-09 22:00N 37°53' W 122°25'5 9.3
2017-Dec-09 21:30N 37°49' W 122°21'2 4.4
2017-Dec-09 21:00N 37°49' W 122°19'0 0.0
2017-Dec-09 20:30N 37°49' W 122°19'0 0.0
2017-Dec-09 20:00N 37°49' W 122°19'0 0.0
2017-Dec-09 19:30N 37°49' W 122°19'0 0.0
2017-Dec-09 19:00N 37°49' W 122°19'0 0.0
2017-Dec-09 18:30N 37°49' W 122°19'0 0.0
2017-Dec-09 18:00N 37°49' W 122°19'0 0.0
2017-Dec-09 17:30N 37°49' W 122°19'0 0.0
2017-Dec-09 17:00N 37°49' W 122°19'0 0.0
2017-Dec-09 16:30N 37°49' W 122°19'1 2.5
2017-Dec-09 16:00N 37°49' W 122°20'1 2.1
2017-Dec-09 15:30N 37°48' W 122°19'1 1.3
2017-Dec-09 15:01N 37°48' W 122°20'1 2.6
2017-Dec-09 14:30N 37°48' W 122°22'3 5.3
2017-Dec-09 14:01N 37°48' W 122°18'1 1.3
2017-Dec-09 13:30N 37°48' W 122°18'1 2.7
2017-Dec-09 13:00N 37°48' W 122°19'1 2.3
2017-Dec-09 12:30N 37°49' W 122°20'1 3.0
2017-Dec-09 12:00N 37°49' W 122°19'0 0.0
2017-Dec-09 11:30N 37°49' W 122°19'0 0.0
2017-Dec-09 11:00N 37°49' W 122°19'0 0.0
2017-Dec-09 10:30N 37°49' W 122°19'0 0.0
2017-Dec-09 10:00N 37°49' W 122°19'0 0.0
2017-Dec-09 09:30N 37°49' W 122°19'0 0.0
2017-Dec-09 09:00N 37°49' W 122°19'0 0.0
2017-Dec-09 08:30N 37°49' W 122°19'0 0.0
2017-Dec-09 08:00N 37°49' W 122°19'0 0.0
2017-Dec-09 07:30N 37°49' W 122°19'0 0.0
2017-Dec-09 07:00N 37°49' W 122°19'0 0.0
2017-Dec-09 06:30N 37°49' W 122°19'0 0.0
2017-Dec-09 06:00N 37°49' W 122°19'0 0.0
2017-Dec-09 05:30N 37°49' W 122°19'0 0.0
2017-Dec-09 05:00N 37°49' W 122°19'0 0.0
2017-Dec-09 04:30N 37°49' W 122°19'0 0.0
2017-Dec-09 04:00N 37°49' W 122°19'0 0.0
2017-Dec-09 03:30N 37°49' W 122°19'0 0.0
2017-Dec-09 03:00N 37°49' W 122°19'0 0.0
2017-Dec-09 02:30N 37°49' W 122°19'0 0.0
2017-Dec-09 02:00N 37°49' W 122°19'0 0.0
2017-Dec-09 01:30N 37°49' W 122°19'0 0.0
2017-Dec-09 01:00N 37°49' W 122°19'0 0.0
2017-Dec-09 00:30N 37°49' W 122°19'0 0.0
2017-Dec-09 00:00N 37°49' W 122°19'0 0.0
2017-Dec-08 23:30N 37°49' W 122°19'2 3.6
2017-Dec-08 23:00N 37°48' W 122°18'0 0.0
2017-Dec-08 22:30N 37°48' W 122°18'0 0.4
2017-Dec-08 22:00N 37°48' W 122°18'2 4.3
2017-Dec-08 21:30N 37°48' W 122°21'0 0.0
2017-Dec-08 21:00N 37°48' W 122°21'0 0.0
2017-Dec-08 20:30N 37°48' W 122°21'0 0.0
2017-Dec-08 20:00N 37°48' W 122°21'0 0.0
2017-Dec-08 19:30N 37°48' W 122°21'0 0.0
2017-Dec-08 19:00N 37°48' W 122°21'0 0.0
2017-Dec-08 18:30N 37°48' W 122°21'0 0.0
2017-Dec-08 18:00N 37°48' W 122°21'0 0.0
2017-Dec-08 17:30N 37°48' W 122°21'0 0.0
2017-Dec-08 17:00N 37°48' W 122°21'0 0.0
2017-Dec-08 16:30N 37°48' W 122°21'0 0.0
2017-Dec-08 16:00N 37°48' W 122°21'0 0.0
2017-Dec-08 15:30N 37°48' W 122°21'3 5.1
2017-Dec-08 15:00N 37°48' W 122°24'0 0.1
2017-Dec-08 14:30N 37°48' W 122°24'2 3.5
2017-Dec-08 14:00N 37°49' W 122°26'1 2.4
2017-Dec-08 13:30N 37°49' W 122°24'0 0.0
2017-Dec-08 13:00N 37°49' W 122°24'2 4.8
2017-Dec-08 12:30N 37°48' W 122°21'3 6.3
2017-Dec-08 12:00N 37°48' W 122°17'1 1.3
2017-Dec-08 11:30N 37°48' W 122°18'0 0.6
2017-Dec-08 11:00N 37°48' W 122°19'0 0.2
2017-Dec-08 10:31N 37°48' W 122°19'0 0.0
2017-Dec-08 10:00N 37°48' W 122°19'0 0.9
2017-Dec-08 09:30N 37°48' W 122°18'1 1.5
2017-Dec-08 09:00N 37°48' W 122°19'2 4.0
2017-Dec-08 08:30N 37°48' W 122°21'1 1.4
2017-Dec-08 08:00N 37°48' W 122°21'0 0.0
2017-Dec-08 07:30N 37°48' W 122°21'1 2.5
2017-Dec-08 07:01N 37°48' W 122°19'0 0.4
2017-Dec-08 06:30N 37°48' W 122°19'2 3.8
2017-Dec-08 06:01N 37°48' W 122°22'1 2.5
2017-Dec-08 05:31N 37°47' W 122°23'0 0.0
2017-Dec-08 05:00N 37°47' W 122°23'0 0.0
2017-Dec-08 04:30N 37°47' W 122°23'0 0.0
2017-Dec-08 04:00N 37°47' W 122°23'0 0.0
2017-Dec-08 03:30N 37°47' W 122°23'0 0.0
2017-Dec-08 03:00N 37°47' W 122°23'0 0.0
2017-Dec-08 02:31N 37°47' W 122°23'0 0.0
2017-Dec-08 02:00N 37°47' W 122°23'0 0.0
2017-Dec-08 01:31N 37°47' W 122°23'0 0.0
2017-Dec-08 01:01N 37°47' W 122°23'0 0.0
2017-Dec-08 00:30N 37°47' W 122°23'3 6.3
2017-Dec-08 00:01N 37°49' W 122°20'0 0.5
2017-Dec-07 23:31N 37°49' W 122°20'1 2.1
2017-Dec-07 23:01N 37°49' W 122°19'0 0.0
2017-Dec-07 22:30N 37°49' W 122°19'0 0.0
2017-Dec-07 22:01N 37°49' W 122°19'0 0.0
2017-Dec-07 21:30N 37°49' W 122°19'0 0.0
2017-Dec-07 21:00N 37°49' W 122°19'0 0.0
2017-Dec-07 20:30N 37°49' W 122°19'0 0.0
2017-Dec-07 20:00N 37°49' W 122°19'0 0.0
2017-Dec-07 19:30N 37°49' W 122°19'0 0.0
2017-Dec-07 19:00N 37°49' W 122°19'0 0.0
2017-Dec-07 18:31N 37°49' W 122°19'0 0.0
2017-Dec-07 18:00N 37°49' W 122°19'0 0.0
2017-Dec-07 17:30N 37°49' W 122°19'0 0.0
2017-Dec-07 17:00N 37°49' W 122°19'0 0.0
2017-Dec-07 16:31N 37°49' W 122°19'0 0.0
2017-Dec-07 16:01N 37°49' W 122°19'0 0.0
2017-Dec-07 15:30N 37°49' W 122°19'0 0.0
2017-Dec-07 15:01N 37°49' W 122°19'0 0.0
2017-Dec-07 14:31N 37°49' W 122°19'0 0.0
2017-Dec-07 14:01N 37°49' W 122°19'0 0.0
2017-Dec-07 13:30N 37°49' W 122°19'0 0.0
2017-Dec-07 13:00N 37°49' W 122°19'0 0.0
2017-Dec-07 12:31N 37°49' W 122°19'0 0.0
2017-Dec-07 12:00N 37°49' W 122°19'2 3.3
2017-Dec-07 11:30N 37°48' W 122°19'0 0.1
2017-Dec-07 11:00N 37°48' W 122°19'1 2.8
2017-Dec-07 10:30N 37°48' W 122°21'0 0.3
2017-Dec-07 10:00N 37°48' W 122°21'0 0.0
2017-Dec-07 09:30N 37°48' W 122°21'0 0.0
2017-Dec-07 09:01N 37°48' W 122°21'0 0.0
2017-Dec-07 08:30N 37°48' W 122°21'0 0.0
2017-Dec-07 08:00N 37°48' W 122°21'0 0.0
2017-Dec-07 07:30N 37°48' W 122°21'0 0.1
2017-Dec-07 07:01N 37°48' W 122°21'0 0.1
2017-Dec-07 06:30N 37°48' W 122°21'0 0.1
2017-Dec-07 06:00N 37°48' W 122°21'0 0.0
2017-Dec-07 05:31N 37°48' W 122°21'0 0.0
2017-Dec-07 05:00N 37°48' W 122°21'0 0.0
2017-Dec-07 04:31N 37°48' W 122°21'0 0.0
2017-Dec-07 04:00N 37°48' W 122°21'1 2.6
2017-Dec-07 03:30N 37°48' W 122°19'1 2.5
2017-Dec-07 03:00N 37°48' W 122°18'1 1.7
2017-Dec-07 02:30N 37°48' W 122°19'0 0.3
2017-Dec-07 02:01N 37°48' W 122°18'0 0.1
2017-Dec-07 01:31N 37°48' W 122°18'2 3.7
2017-Dec-07 01:00N 37°48' W 122°20'1 1.6
2017-Dec-07 00:30N 37°49' W 122°20'0 0.0
2017-Dec-07 00:01N 37°49' W 122°20'1 1.4
2017-Dec-06 23:30N 37°48' W 122°20'1 1.4
2017-Dec-06 23:01N 37°49' W 122°20'2 3.5
2017-Dec-06 22:30N 37°48' W 122°21'2 4.3
2017-Dec-06 22:00N 37°48' W 122°19'1 2.4
2017-Dec-06 21:30N 37°48' W 122°17'3 5.0
2017-Dec-06 21:00N 37°48' W 122°20'  
Track history (hours):
 
Tides and Currents Weather Stations Pressure Air Temp Water Temp Dewpoint Dewpoint Depression Visibility Wind Speed Wind Dir Waves Ship Positions

Patricia Ann

Owner: AmNav Maritime Corporation, Oakland, CA. More information available from US FCC via Universal Licensing System and Coast Guard Vessel Documentation Center.

Last reported at 2017-Dec-15 02:10 UTC. Time now 2017-Dec-15 04:35 UTC.
Position N 38°03' W 122°11'.

Length 24 m; draft 4.9 m.

Type: Tug. MMSI: 367330510.

Date/timePositionNaut miles runAvg speedWind from/ knotsBaromVisibWave heightAir tempDewpointWater temp
2017-Dec-15 02:10N 38°03' W 122°11'13 8.3
2017-Dec-15 00:35N 37°57' W 122°26'1 9.7
2017-Dec-15 00:30N 37°56' W 122°26'8 1.4
2017-Dec-14 18:30N 37°49' W 122°19'0 0.0
2017-Dec-14 18:00N 37°49' W 122°19'0 0.0
2017-Dec-14 17:30N 37°49' W 122°19'0 0.0
2017-Dec-14 17:00N 37°49' W 122°19'0 0.0
2017-Dec-14 16:30N 37°49' W 122°19'0 0.0
2017-Dec-14 16:00N 37°49' W 122°19'0 0.0
2017-Dec-14 15:00N 37°49' W 122°19'1 1.4
2017-Dec-14 14:30N 37°49' W 122°19'0 0.5
2017-Dec-14 14:00N 37°49' W 122°20'1 1.2
2017-Dec-14 13:30N 37°49' W 122°19'0 0.7
2017-Dec-14 13:00N 37°49' W 122°19'0 0.0
2017-Dec-14 12:30N 37°49' W 122°19'0 0.0
2017-Dec-14 12:00N 37°49' W 122°19'0 0.0
2017-Dec-14 11:30N 37°49' W 122°19'0 0.0
2017-Dec-14 11:00N 37°49' W 122°19'0 0.0
2017-Dec-14 10:30N 37°49' W 122°19'0 0.0
2017-Dec-14 10:00N 37°49' W 122°19'0 0.0
2017-Dec-14 09:30N 37°49' W 122°19'0 0.0
2017-Dec-14 09:00N 37°49' W 122°19'0 0.0
2017-Dec-14 08:30N 37°49' W 122°19'0 0.0
2017-Dec-14 08:00N 37°49' W 122°19'0 0.0
2017-Dec-14 07:30N 37°49' W 122°19'0 0.0
2017-Dec-14 07:00N 37°49' W 122°19'0 0.0
2017-Dec-14 06:30N 37°49' W 122°19'0 0.0
2017-Dec-14 06:00N 37°49' W 122°19'0 0.0
2017-Dec-14 05:30N 37°49' W 122°19'0 0.0
2017-Dec-14 05:00N 37°49' W 122°19'0 0.0
2017-Dec-14 04:30N 37°49' W 122°19'0 0.0
2017-Dec-14 04:00N 37°49' W 122°19'0 0.0
2017-Dec-14 03:30N 37°49' W 122°19'2 3.2
2017-Dec-14 03:01N 37°48' W 122°19'0 0.0
2017-Dec-14 02:31N 37°48' W 122°19'0 0.1
2017-Dec-14 02:01N 37°48' W 122°19'0 0.1
2017-Dec-14 01:30N 37°48' W 122°19'0 0.2
2017-Dec-14 01:01N 37°48' W 122°19'1 1.9
2017-Dec-14 00:31N 37°48' W 122°21'2 3.6
2017-Dec-14 00:00N 37°49' W 122°19'0 0.0
2017-Dec-13 23:30N 37°49' W 122°19'0 0.0
2017-Dec-13 23:00N 37°49' W 122°19'0 0.0
2017-Dec-13 22:30N 37°49' W 122°19'0 0.0
2017-Dec-13 22:00N 37°49' W 122°19'0 0.0
2017-Dec-13 21:30N 37°49' W 122°19'0 0.0
2017-Dec-13 21:00N 37°49' W 122°19'1 1.1
2017-Dec-13 20:31N 37°49' W 122°19'4 7.2
2017-Dec-13 20:00N 37°51' W 122°23'510.2
2017-Dec-13 19:30N 37°56' W 122°25'9 9.0
2017-Dec-13 18:33N 38°03' W 122°19'0 8.6
2017-Dec-13 18:30N 38°03' W 122°19'3 3.0
2017-Dec-13 17:27N 38°04' W 122°15'5 1.9
2017-Dec-13 14:33N 38°02' W 122°08'2 9.1
2017-Dec-13 14:23N 38°02' W 122°10'4 9.4
2017-Dec-13 13:54N 38°04' W 122°16'510.1
2017-Dec-13 13:26N 38°02' W 122°21'610.5
2017-Dec-13 12:51N 37°57' W 122°26'411.6
2017-Dec-13 12:30N 37°53' W 122°25'5 9.7
2017-Dec-13 12:00N 37°49' W 122°21'2 4.0
2017-Dec-13 11:30N 37°49' W 122°19'0 0.0
2017-Dec-13 11:00N 37°49' W 122°19'0 0.0
2017-Dec-13 10:30N 37°49' W 122°19'0 0.0
2017-Dec-13 10:00N 37°49' W 122°19'0 0.0
2017-Dec-13 09:30N 37°49' W 122°19'0 0.0
2017-Dec-13 09:00N 37°49' W 122°19'0 0.0
2017-Dec-13 08:30N 37°49' W 122°19'0 0.0
2017-Dec-13 08:00N 37°49' W 122°19'2 3.2
2017-Dec-13 07:30N 37°48' W 122°19'0 0.4
2017-Dec-13 07:01N 37°48' W 122°19'0 0.2
2017-Dec-13 06:30N 37°48' W 122°19'1 2.3
2017-Dec-13 06:00N 37°48' W 122°17'1 2.2
2017-Dec-13 05:31N 37°48' W 122°19'2 4.9
2017-Dec-13 05:00N 37°48' W 122°22'1 1.9
2017-Dec-13 04:30N 37°48' W 122°21'2 3.4
2017-Dec-13 04:00N 37°48' W 122°19'0 0.0
2017-Dec-13 03:30N 37°48' W 122°19'1 2.4
2017-Dec-13 03:00N 37°48' W 122°20'1 2.0
2017-Dec-13 02:30N 37°48' W 122°21'2 4.8
2017-Dec-13 02:00N 37°49' W 122°19'0 0.0
2017-Dec-13 01:30N 37°49' W 122°19'0 0.0
2017-Dec-13 01:00N 37°49' W 122°19'2 3.5
2017-Dec-13 00:30N 37°48' W 122°21'1 2.0
2017-Dec-13 00:00N 37°49' W 122°19'1 1.7
2017-Dec-12 23:30N 37°49' W 122°19'0 0.0
2017-Dec-12 23:00N 37°49' W 122°19'3 6.6
2017-Dec-12 22:30N 37°51' W 122°23'5 9.5
2017-Dec-12 22:00N 37°55' W 122°25'0 0.6
2017-Dec-12 21:30N 37°55' W 122°25'1 1.6
2017-Dec-12 21:00N 37°55' W 122°25'2 3.9
2017-Dec-12 20:30N 37°53' W 122°25'2 4.5
2017-Dec-12 19:59N 37°55' W 122°25'0 0.0
2017-Dec-12 19:30N 37°55' W 122°25'0 0.0
2017-Dec-12 19:00N 37°55' W 122°25'0 0.0
2017-Dec-12 18:30N 37°55' W 122°25'0 0.0
2017-Dec-12 18:00N 37°55' W 122°25'0 0.0
2017-Dec-12 17:30N 37°55' W 122°25'0 0.2
2017-Dec-12 15:41N 37°55' W 122°25'1 3.1
2017-Dec-12 15:30N 37°55' W 122°25'3 5.8
2017-Dec-12 15:00N 37°54' W 122°22'1 1.6
2017-Dec-12 14:27N 37°55' W 122°22'0 0.5
2017-Dec-12 13:57N 37°55' W 122°22'0 0.0
2017-Dec-12 13:30N 37°55' W 122°22'0 0.0
2017-Dec-12 13:00N 37°55' W 122°22'2 3.4
2017-Dec-12 12:30N 37°54' W 122°24'4 7.6
2017-Dec-12 12:01N 37°51' W 122°23'3 6.1
2017-Dec-12 11:30N 37°49' W 122°20'0 0.2
2017-Dec-12 11:00N 37°49' W 122°20'1 1.0
2017-Dec-12 10:30N 37°49' W 122°19'1 1.1
2017-Dec-12 10:00N 37°49' W 122°19'0 0.0
2017-Dec-12 09:30N 37°49' W 122°19'0 0.0
2017-Dec-12 09:00N 37°49' W 122°19'0 0.0
2017-Dec-12 08:30N 37°49' W 122°19'0 0.0
2017-Dec-12 08:00N 37°49' W 122°19'0 0.0
2017-Dec-12 07:30N 37°49' W 122°19'0 0.0
2017-Dec-12 07:00N 37°49' W 122°19'0 0.0
2017-Dec-12 06:31N 37°49' W 122°19'0 0.0
2017-Dec-12 06:00N 37°49' W 122°19'0 0.0
2017-Dec-12 05:30N 37°49' W 122°19'0 0.0
2017-Dec-12 05:00N 37°49' W 122°19'0 0.0
2017-Dec-12 04:30N 37°49' W 122°19'0 0.0
2017-Dec-12 04:00N 37°49' W 122°19'2 4.4
2017-Dec-12 03:31N 37°49' W 122°21'4 7.2
2017-Dec-12 03:00N 37°52' W 122°24'3 5.1
2017-Dec-12 02:30N 37°54' W 122°22'1 1.1
2017-Dec-12 02:00N 37°54' W 122°22'0 0.3
2017-Dec-12 01:30N 37°55' W 122°22'2 4.4
2017-Dec-12 00:58N 37°55' W 122°25'4 7.7
2017-Dec-12 00:29N 37°59' W 122°26'6 9.8
2017-Dec-11 23:54N 38°02' W 122°20'510.8
2017-Dec-11 23:25N 38°04' W 122°14'6 0.6
2017-Dec-11 13:40N 38°03' W 122°06'0 0.0
2017-Dec-11 13:29N 38°03' W 122°06'0 0.0
2017-Dec-11 12:59N 38°03' W 122°06'2 2.1
2017-Dec-11 12:13N 38°02' W 122°08'15 0.9
2017-Dec-10 18:45N 38°01' W 121°48'2 6.8
2017-Dec-10 18:29N 38°02' W 121°51'3 5.9
2017-Dec-10 17:55N 38°03' W 121°55'9 1.7
2017-Dec-10 12:42N 38°03' W 122°06'2 2.7
2017-Dec-10 12:01N 38°02' W 122°08'0 2.3
2017-Dec-10 11:59N 38°02' W 122°08'1 2.2
2017-Dec-10 11:27N 38°02' W 122°10'2 2.3
2017-Dec-10 10:44N 38°02' W 122°08'4 0.4
2017-Dec-10 01:29N 38°03' W 122°12'810.7
2017-Dec-10 00:45N 38°02' W 122°22'310.9
2017-Dec-10 00:29N 38°00' W 122°24'510.1
2017-Dec-10 00:00N 37°55' W 122°25'2 3.8
2017-Dec-09 23:26N 37°55' W 122°22'0 0.4
2017-Dec-09 23:00N 37°55' W 122°22'1 1.0
2017-Dec-09 22:30N 37°55' W 122°22'3 5.5
2017-Dec-09 22:00N 37°53' W 122°25'5 9.3
2017-Dec-09 21:30N 37°49' W 122°21'2 4.4
2017-Dec-09 21:00N 37°49' W 122°19'0 0.0
2017-Dec-09 20:30N 37°49' W 122°19'0 0.0
2017-Dec-09 20:00N 37°49' W 122°19'0 0.0
2017-Dec-09 19:30N 37°49' W 122°19'0 0.0
2017-Dec-09 19:00N 37°49' W 122°19'0 0.0
2017-Dec-09 18:30N 37°49' W 122°19'0 0.0
2017-Dec-09 18:00N 37°49' W 122°19'0 0.0
2017-Dec-09 17:30N 37°49' W 122°19'0 0.0
2017-Dec-09 17:00N 37°49' W 122°19'0 0.0
2017-Dec-09 16:30N 37°49' W 122°19'1 2.5
2017-Dec-09 16:00N 37°49' W 122°20'1 2.1
2017-Dec-09 15:30N 37°48' W 122°19'1 1.3
2017-Dec-09 15:01N 37°48' W 122°20'1 2.6
2017-Dec-09 14:30N 37°48' W 122°22'3 5.3
2017-Dec-09 14:01N 37°48' W 122°18'1 1.3
2017-Dec-09 13:30N 37°48' W 122°18'1 2.7
2017-Dec-09 13:00N 37°48' W 122°19'1 2.3
2017-Dec-09 12:30N 37°49' W 122°20'1 3.0
2017-Dec-09 12:00N 37°49' W 122°19'0 0.0
2017-Dec-09 11:30N 37°49' W 122°19'0 0.0
2017-Dec-09 11:00N 37°49' W 122°19'0 0.0
2017-Dec-09 10:30N 37°49' W 122°19'0 0.0
2017-Dec-09 10:00N 37°49' W 122°19'0 0.0
2017-Dec-09 09:30N 37°49' W 122°19'0 0.0
2017-Dec-09 09:00N 37°49' W 122°19'0 0.0
2017-Dec-09 08:30N 37°49' W 122°19'0 0.0
2017-Dec-09 08:00N 37°49' W 122°19'0 0.0
2017-Dec-09 07:30N 37°49' W 122°19'0 0.0
2017-Dec-09 07:00N 37°49' W 122°19'0 0.0
2017-Dec-09 06:30N 37°49' W 122°19'0 0.0
2017-Dec-09 06:00N 37°49' W 122°19'0 0.0
2017-Dec-09 05:30N 37°49' W 122°19'0 0.0
2017-Dec-09 05:00N 37°49' W 122°19'0 0.0
2017-Dec-09 04:30N 37°49' W 122°19'0 0.0
2017-Dec-09 04:00N 37°49' W 122°19'0 0.0
2017-Dec-09 03:30N 37°49' W 122°19'0 0.0
2017-Dec-09 03:00N 37°49' W 122°19'0 0.0
2017-Dec-09 02:30N 37°49' W 122°19'0 0.0
2017-Dec-09 02:00N 37°49' W 122°19'0 0.0
2017-Dec-09 01:30N 37°49' W 122°19'0 0.0
2017-Dec-09 01:00N 37°49' W 122°19'0 0.0
2017-Dec-09 00:30N 37°49' W 122°19'0 0.0
2017-Dec-09 00:00N 37°49' W 122°19'0 0.0
2017-Dec-08 23:30N 37°49' W 122°19'2 3.6
2017-Dec-08 23:00N 37°48' W 122°18'0 0.0
2017-Dec-08 22:30N 37°48' W 122°18'0 0.4
2017-Dec-08 22:00N 37°48' W 122°18'2 4.3
2017-Dec-08 21:30N 37°48' W 122°21'0 0.0
2017-Dec-08 21:00N 37°48' W 122°21'0 0.0
2017-Dec-08 20:30N 37°48' W 122°21'0 0.0
2017-Dec-08 20:00N 37°48' W 122°21'0 0.0
2017-Dec-08 19:30N 37°48' W 122°21'0 0.0
2017-Dec-08 19:00N 37°48' W 122°21'0 0.0
2017-Dec-08 18:30N 37°48' W 122°21'0 0.0
2017-Dec-08 18:00N 37°48' W 122°21'0 0.0
2017-Dec-08 17:30N 37°48' W 122°21'0 0.0
2017-Dec-08 17:00N 37°48' W 122°21'0 0.0
2017-Dec-08 16:30N 37°48' W 122°21'0 0.0
2017-Dec-08 16:00N 37°48' W 122°21'0 0.0
2017-Dec-08 15:30N 37°48' W 122°21'3 5.1
2017-Dec-08 15:00N 37°48' W 122°24'0 0.1
2017-Dec-08 14:30N 37°48' W 122°24'2 3.5
2017-Dec-08 14:00N 37°49' W 122°26'1 2.4
2017-Dec-08 13:30N 37°49' W 122°24'0 0.0
2017-Dec-08 13:00N 37°49' W 122°24'2 4.8
2017-Dec-08 12:30N 37°48' W 122°21'3 6.3
2017-Dec-08 12:00N 37°48' W 122°17'1 1.3
2017-Dec-08 11:30N 37°48' W 122°18'0 0.6
2017-Dec-08 11:00N 37°48' W 122°19'0 0.2
2017-Dec-08 10:31N 37°48' W 122°19'0 0.0
2017-Dec-08 10:00N 37°48' W 122°19'0 0.9
2017-Dec-08 09:30N 37°48' W 122°18'1 1.5
2017-Dec-08 09:00N 37°48' W 122°19'2 4.0
2017-Dec-08 08:30N 37°48' W 122°21'1 1.4
2017-Dec-08 08:00N 37°48' W 122°21'0 0.0
2017-Dec-08 07:30N 37°48' W 122°21'1 2.5
2017-Dec-08 07:01N 37°48' W 122°19'0 0.4
2017-Dec-08 06:30N 37°48' W 122°19'2 3.8
2017-Dec-08 06:01N 37°48' W 122°22'1 2.5
2017-Dec-08 05:31N 37°47' W 122°23'0 0.0
2017-Dec-08 05:00N 37°47' W 122°23'0 0.0
2017-Dec-08 04:30N 37°47' W 122°23'0 0.0
2017-Dec-08 04:00N 37°47' W 122°23'0 0.0
2017-Dec-08 03:30N 37°47' W 122°23'0 0.0
2017-Dec-08 03:00N 37°47' W 122°23'0 0.0
2017-Dec-08 02:31N 37°47' W 122°23'0 0.0
2017-Dec-08 02:00N 37°47' W 122°23'0 0.0
2017-Dec-08 01:31N 37°47' W 122°23'0 0.0
2017-Dec-08 01:01N 37°47' W 122°23'0 0.0
2017-Dec-08 00:30N 37°47' W 122°23'3 6.3
2017-Dec-08 00:01N 37°49' W 122°20'0 0.5
2017-Dec-07 23:31N 37°49' W 122°20'1 2.1
2017-Dec-07 23:01N 37°49' W 122°19'0 0.0
2017-Dec-07 22:30N 37°49' W 122°19'0 0.0
2017-Dec-07 22:01N 37°49' W 122°19'0 0.0
2017-Dec-07 21:30N 37°49' W 122°19'0 0.0
2017-Dec-07 21:00N 37°49' W 122°19'0 0.0
2017-Dec-07 20:30N 37°49' W 122°19'0 0.0
2017-Dec-07 20:00N 37°49' W 122°19'0 0.0
2017-Dec-07 19:30N 37°49' W 122°19'0 0.0
2017-Dec-07 19:00N 37°49' W 122°19'0 0.0
2017-Dec-07 18:31N 37°49' W 122°19'0 0.0
2017-Dec-07 18:00N 37°49' W 122°19'0 0.0
2017-Dec-07 17:30N 37°49' W 122°19'0 0.0
2017-Dec-07 17:00N 37°49' W 122°19'0 0.0
2017-Dec-07 16:31N 37°49' W 122°19'0 0.0
2017-Dec-07 16:01N 37°49' W 122°19'0 0.0
2017-Dec-07 15:30N 37°49' W 122°19'0 0.0
2017-Dec-07 15:01N 37°49' W 122°19'0 0.0
2017-Dec-07 14:31N 37°49' W 122°19'0 0.0
2017-Dec-07 14:01N 37°49' W 122°19'0 0.0
2017-Dec-07 13:30N 37°49' W 122°19'0 0.0
2017-Dec-07 13:00N 37°49' W 122°19'0 0.0
2017-Dec-07 12:31N 37°49' W 122°19'0 0.0
2017-Dec-07 12:00N 37°49' W 122°19'2 3.3
2017-Dec-07 11:30N 37°48' W 122°19'0 0.1
2017-Dec-07 11:00N 37°48' W 122°19'1 2.8
2017-Dec-07 10:30N 37°48' W 122°21'0 0.3
2017-Dec-07 10:00N 37°48' W 122°21'0 0.0
2017-Dec-07 09:30N 37°48' W 122°21'0 0.0
2017-Dec-07 09:01N 37°48' W 122°21'0 0.0
2017-Dec-07 08:30N 37°48' W 122°21'0 0.0
2017-Dec-07 08:00N 37°48' W 122°21'0 0.0
2017-Dec-07 07:30N 37°48' W 122°21'0 0.1
2017-Dec-07 07:01N 37°48' W 122°21'0 0.1
2017-Dec-07 06:30N 37°48' W 122°21'0 0.1
2017-Dec-07 06:00N 37°48' W 122°21'0 0.0
2017-Dec-07 05:31N 37°48' W 122°21'0 0.0
2017-Dec-07 05:00N 37°48' W 122°21'0 0.0
2017-Dec-07 04:31N 37°48' W 122°21'0 0.0
2017-Dec-07 04:00N 37°48' W 122°21'1 2.6
2017-Dec-07 03:30N 37°48' W 122°19'1 2.5
2017-Dec-07 03:00N 37°48' W 122°18'1 1.7
2017-Dec-07 02:30N 37°48' W 122°19'0 0.3
2017-Dec-07 02:01N 37°48' W 122°18'0 0.1
2017-Dec-07 01:31N 37°48' W 122°18'2 3.7
2017-Dec-07 01:00N 37°48' W 122°20'1 1.6
2017-Dec-07 00:30N 37°49' W 122°20'0 0.0
2017-Dec-07 00:01N 37°49' W 122°20'1 1.4
2017-Dec-06 23:30N 37°48' W 122°20'1 1.4
2017-Dec-06 23:01N 37°49' W 122°20'2 3.5
2017-Dec-06 22:30N 37°48' W 122°21'2 4.3
2017-Dec-06 22:00N 37°48' W 122°19'1 2.4
2017-Dec-06 21:30N 37°48' W 122°17'3 5.0
2017-Dec-06 21:00N 37°48' W 122°20'  

Dump ship's entire track history